Time;durP1;ratioP1;P1;durP2;ratioP2;P2;SDS_P1;SDS_P2;PMS_P1;PMS_P2;Temp;Humidity;BMP_temperature;BMP_pressure;BME280_temperature;BME280_humidity;BME280_pressure;Samples;Min_cycle;Max_cycle;Signal;HPM_P1;HPM_P2
2022/08/06 11:16:57;;;;;;;8.00;7.30;;;;;;;32.10;39.35;100913.45;1775438;80;20927;-78
2022/08/06 11:19:45;;;;;;;7.75;6.97;;;;;;;31.87;39.87;100912.13;1775440;80;20962;-75
2022/08/06 11:22:35;;;;;;;8.25;7.22;;;;;;;31.66;40.04;100908.67;1775530;80;21450;-76
2022/08/06 11:25:04;;;;;;;7.62;6.65;;;;;;;31.59;40.38;100902.08;1775603;80;20883;-75
2022/08/06 11:27:51;;;;;;;8.13;7.28;;;;;;;31.76;40.48;100897.66;1775558;80;21275;-75
2022/08/06 11:30:20;;;;;;;6.90;6.30;;;;;;;32.18;39.93;100902.36;1775433;80;20872;-79
2022/08/06 11:32:52;;;;;;;7.03;6.40;;;;;;;32.75;39.20;100897.04;1772755;80;20876;-80
2022/08/06 11:35:37;;;;;;;;;;;;;;;32.85;38.45;100898.58;1778200;80;20919;-83
2022/08/06 11:38:10;;;;;;;12.70;7.70;;;;;;;32.72;38.62;100898.34;1775917;80;20132;-79
2022/08/06 11:41:08;;;;;;;7.25;6.60;;;;;;;32.42;39.02;100895.06;1775414;80;21234;-77
2022/08/06 11:43:56;;;;;;;7.30;6.70;;;;;;;32.03;39.15;100897.16;1775653;80;21021;-82
2022/08/06 11:46:32;;;;;;;8.08;7.37;;;;;;;31.67;39.86;100899.58;1775463;80;21200;-74
2022/08/06 11:49:41;;;;;;;8.80;7.15;;;;;;;31.40;40.34;100901.34;1775621;80;20923;-75
2022/08/06 11:53:02;;;;;;;8.00;7.17;;;;;;;31.29;41.13;100891.43;1775053;80;20903;-76
2022/08/06 11:56:23;;;;;;;9.28;7.15;;;;;;;31.28;41.26;100888.96;1774831;80;20947;-75
2022/08/06 11:59:45;;;;;;;6.25;5.67;;;;;;;31.41;41.35;100881.52;1774913;80;21564;-76
2022/08/06 12:03:06;;;;;;;7.40;6.62;;;;;;;31.59;40.31;100884.64;1774968;80;20963;-83
2022/08/06 12:06:42;;;;;;;7.95;7.25;;;;;;;31.58;40.28;100893.75;1774933;80;20940;-77
2022/08/06 12:10:18;;;;;;;8.28;7.30;;;;;;;31.53;41.15;100888.80;1774891;80;20962;-76
2022/08/06 12:13:54;;;;;;;15.75;7.72;;;;;;;31.45;41.75;100885.38;1774983;80;21472;-79
2022/08/06 12:17:30;;;;;;;10.30;8.05;;;;;;;31.39;42.09;100881.47;1774825;80;20950;-76
2022/08/06 12:21:06;;;;;;;8.50;7.80;;;;;;;31.42;42.43;100879.14;1774923;80;20974;-76
2022/08/06 12:24:42;;;;;;;7.58;6.90;;;;;;;31.88;41.85;100879.66;1774908;80;20882;-83
2022/08/06 12:28:19;;;;;;;7.62;6.85;;;;;;;32.19;40.19;100875.80;1774925;80;21544;-76
2022/08/06 12:31:54;;;;;;;10.40;7.40;;;;;;;32.18;40.13;100880.05;1774982;80;20946;-79
2022/08/06 12:35:29;;;;;;;8.75;7.85;;;;;;;32.04;40.49;100878.15;1774881;80;20970;-78
2022/08/06 12:42:58;;;;;;;10.72;7.97;;;;;;;31.80;41.85;100874.67;1774898;80;20987;-76
2022/08/06 12:46:33;;;;;;;13.32;8.20;;;;;;;31.80;42.37;100874.67;1774859;80;21476;-75
2022/08/06 12:50:10;;;;;;;7.85;7.15;;;;;;;31.79;42.84;100873.02;1774842;80;20919;-79
2022/08/06 12:53:46;;;;;;;9.40;8.40;;;;;;;31.79;42.85;100873.02;1774770;80;21595;-78
2022/08/06 12:57:22;;;;;;;9.00;8.20;;;;;;;31.73;42.67;100869.95;1774839;80;20887;-75
2022/08/06 13:00:57;;;;;;;8.90;8.10;;;;;;;31.67;42.99;100870.06;1774763;80;20978;-75
2022/08/06 13:04:33;;;;;;;9.95;8.15;;;;;;;31.67;43.21;100877.59;1774843;80;20867;-82
2022/08/06 13:08:08;;;;;;;10.35;8.58;;;;;;;31.67;43.15;100871.41;1774923;80;21477;-76
2022/08/06 13:11:45;;;;;;;10.45;8.83;;;;;;;31.61;43.49;100875.03;1774786;80;20922;-76
2022/08/06 13:15:21;;;;;;;8.68;7.87;;;;;;;31.50;43.88;100885.22;1774879;80;20918;-75
2022/08/06 13:18:56;;;;;;;11.63;8.23;;;;;;;31.30;44.44;100886.34;1774984;80;21480;-76
2022/08/06 13:22:32;;;;;;;11.25;9.65;;;;;;;31.16;44.99;100880.91;1774874;80;20859;-75
2022/08/06 13:26:07;;;;;;;12.53;9.50;;;;;;;31.11;45.27;100880.77;1774822;80;20922;-77
2022/08/06 13:29:42;;;;;;;10.10;8.55;;;;;;;31.03;45.52;100883.80;1774732;80;20879;-76
2022/08/06 13:33:18;;;;;;;13.25;9.18;;;;;;;31.02;46.13;100877.34;1774882;80;21561;-75
2022/08/06 13:36:54;;;;;;;9.63;8.65;;;;;;;31.05;46.40;100874.20;1774802;80;20997;-75
2022/08/06 13:40:29;;;;;;;9.23;8.35;;;;;;;31.12;46.18;100874.89;1774887;80;20946;-80
2022/08/06 13:44:05;;;;;;;11.35;8.33;;;;;;;31.15;46.27;100873.09;1774858;80;20907;-75
2022/08/06 13:47:40;;;;;;;10.88;8.38;;;;;;;31.15;46.58;100863.18;1774688;80;20931;-75
2022/08/06 13:51:16;;;;;;;9.95;9.03;;;;;;;31.19;46.52;100864.88;1774752;80;20962;-75
2022/08/06 13:54:52;;;;;;;14.78;12.15;;;;;;;31.24;46.18;100863.68;1774834;80;20971;-85
2022/08/06 13:58:27;;;;;;;10.15;9.20;;;;;;;31.39;45.69;100858.16;1774884;80;21481;-77
2022/08/06 14:02:03;;;;;;;11.20;9.65;;;;;;;31.46;45.29;100867.42;1774763;80;20879;-76
2022/08/06 14:05:38;;;;;;;9.10;8.20;;;;;;;31.46;45.27;100854.02;1774740;80;21057;-79
2022/08/06 14:09:15;;;;;;;8.78;8.08;;;;;;;31.48;44.88;100852.73;1775079;80;20882;-79
2022/08/06 14:16:44;;;;;;;8.45;7.55;;;;;;;31.71;44.27;100852.45;1774911;80;21457;-80
2022/08/06 14:20:19;;;;;;;8.10;7.40;;;;;;;31.94;43.58;100857.80;1774687;80;21017;-77
2022/08/06 14:23:55;;;;;;;13.78;8.65;;;;;;;31.96;43.49;100855.16;1774710;80;21511;-77
2022/08/06 14:27:30;;;;;;;8.53;7.72;;;;;;;32.00;44.03;100854.95;1774715;80;20939;-75
2022/08/06 14:31:06;;;;;;;8.43;7.45;;;;;;;32.04;43.68;100845.93;1774779;80;21018;-75
2022/08/06 14:34:42;;;;;;;9.78;8.38;;;;;;;32.09;43.54;100844.70;1774834;80;20875;-80
2022/08/06 14:38:17;;;;;;;8.03;7.35;;;;;;;32.12;43.86;100849.60;1774948;80;21022;-77
2022/08/06 14:45:47;;;;;;;10.70;8.28;;;;;;;31.99;43.75;100841.26;1774756;80;21473;-77
2022/08/06 14:49:23;;;;;;;8.73;7.90;;;;;;;32.02;43.77;100848.02;1774633;80;20884;-76
2022/08/06 14:52:58;;;;;;;9.73;7.22;;;;;;;32.04;43.31;100842.45;1774733;80;20915;-77
2022/08/06 14:56:34;;;;;;;8.93;7.28;;;;;;;32.04;43.25;100839.77;1774739;80;20914;-76
2022/08/06 15:00:10;;;;;;;8.28;6.95;;;;;;;32.02;43.50;100844.52;1774706;80;20954;-79
2022/08/06 15:03:45;;;;;;;11.10;8.05;;;;;;;31.95;43.57;100852.17;1774728;80;20970;-77
2022/08/06 15:07:21;;;;;;;9.08;7.37;;;;;;;31.83;43.96;100848.70;1774807;80;21438;-78
2022/08/06 15:10:57;;;;;;;8.73;7.78;;;;;;;31.81;44.16;100854.02;1774852;80;21485;-77
2022/08/06 15:14:32;;;;;;;8.55;7.50;;;;;;;31.67;44.55;100856.12;1774749;80;21422;-76
2022/08/06 15:18:07;;;;;;;8.15;7.35;;;;;;;31.52;45.09;100849.61;1774772;80;21512;-80
2022/08/06 15:21:43;;;;;;;7.80;7.10;;;;;;;31.35;45.53;100848.11;1774791;80;20914;-77
2022/08/06 15:25:19;;;;;;;8.20;7.40;;;;;;;31.15;45.86;100851.12;1774847;80;20966;-78
2022/08/06 15:28:56;;;;;;;8.38;7.60;;;;;;;30.90;46.33;100849.12;1775011;80;20916;-77
2022/08/06 15:32:32;;;;;;;7.55;6.83;;;;;;;30.68;46.82;100850.69;1774878;80;20908;-78
2022/08/06 15:36:08;;;;;;;10.28;7.03;;;;;;;30.51;47.34;100847.83;1774888;80;20958;-77
2022/08/06 15:39:43;;;;;;;10.32;7.60;;;;;;;30.38;47.68;100846.11;1774916;80;20903;-77
2022/08/06 15:43:19;;;;;;;10.65;7.75;;;;;;;30.34;47.74;100844.13;1775107;80;20962;-76
2022/08/06 15:46:55;;;;;;;9.10;7.50;;;;;;;30.39;47.72;100838.91;1775047;80;20915;-82
2022/08/06 15:50:30;;;;;;;8.65;7.72;;;;;;;30.50;47.55;100831.48;1774940;80;20906;-80
2022/08/06 15:54:06;;;;;;;7.55;6.75;;;;;;;30.98;46.73;100842.14;1774829;80;21249;-77
2022/08/06 15:57:41;;;;;;;10.03;7.33;;;;;;;31.09;46.26;100846.69;1774812;80;21433;-76
2022/08/06 16:01:16;;;;;;;7.58;6.97;;;;;;;30.98;46.39;100850.17;1774830;80;20966;-76
2022/08/06 16:04:51;;;;;;;12.73;7.78;;;;;;;30.80;46.67;100851.02;1774933;80;20880;-76
2022/08/06 16:08:26;;;;;;;12.18;7.03;;;;;;;30.55;47.07;100851.70;1774841;80;21477;-77
2022/08/06 16:12:03;;;;;;;11.25;6.95;;;;;;;30.33;47.67;100854.02;1774856;80;20876;-75
2022/08/06 16:15:39;;;;;;;8.55;7.30;;;;;;;30.16;48.12;100853.50;1774841;80;21464;-84
2022/08/06 16:19:14;;;;;;;7.67;6.97;;;;;;;30.03;48.35;100858.50;1774872;80;20887;-76
2022/08/06 16:22:50;;;;;;;8.33;7.25;;;;;;;29.93;48.60;100855.00;1774875;80;20982;-79
2022/08/06 16:26:25;;;;;;;10.38;7.35;;;;;;;29.87;48.88;100865.78;1774857;80;20998;-75
2022/08/06 16:30:01;;;;;;;7.80;6.87;;;;;;;29.76;49.04;100857.95;1774847;80;20902;-77
2022/08/06 16:33:36;;;;;;;9.65;7.40;;;;;;;29.65;49.07;100865.36;1774838;80;20993;-75
2022/08/06 16:37:11;;;;;;;14.30;7.72;;;;;;;29.52;49.21;100867.33;1774800;80;20931;-78
2022/08/06 16:40:46;;;;;;;12.07;7.33;;;;;;;29.39;49.35;100872.28;1774801;80;20970;-75
2022/08/06 16:44:22;;;;;;;10.18;7.50;;;;;;;29.25;49.51;100875.61;1774748;80;21044;-75
2022/08/06 16:47:58;;;;;;;8.33;7.55;;;;;;;29.20;49.50;100883.92;1774728;80;20919;-76
2022/08/06 16:51:34;;;;;;;12.25;8.03;;;;;;;29.12;49.59;100878.86;1774852;80;20920;-77
2022/08/06 16:55:09;;;;;;;7.92;7.00;;;;;;;29.05;49.93;100883.42;1774907;80;20962;-75
2022/08/06 16:58:48;;;;;;;8.68;6.25;;;;;;;28.93;50.08;100887.83;1774913;80;20915;-76
2022/08/06 17:02:38;;;;;;;7.35;6.62;;;;;;;28.81;50.25;100886.38;1774776;80;21521;-75
2022/08/06 17:06:13;;;;;;;9.30;6.87;;;;;;;28.70;50.42;100891.05;1774782;80;20914;-75
2022/08/06 17:09:49;;;;;;;7.53;6.92;;;;;;;28.57;50.61;100898.58;1774534;80;20975;-75
2022/08/06 17:13:28;;;;;;;8.73;6.62;;;;;;;28.46;51.00;100899.26;1774809;80;20867;-75
2022/08/06 17:17:02;;;;;;;11.57;6.80;;;;;;;28.42;51.34;100898.03;1774812;80;20978;-74
2022/08/06 17:20:39;;;;;;;7.87;7.05;;;;;;;28.34;52.09;100893.73;1774751;80;21005;-76
2022/08/06 17:24:14;;;;;;;10.38;7.33;;;;;;;28.29;52.96;100891.41;1774788;80;21438;-74
2022/08/06 17:27:51;;;;;;;8.23;7.45;;;;;;;28.21;53.96;100893.78;1774646;80;20986;-75
